Time;durP1;ratioP1;P1;durP2;ratioP2;P2;SDS_P1;SDS_P2;PMS_P1;PMS_P2;Temp;Humidity;BMP_temperature;BMP_pressure;BME280_temperature;BME280_humidity;BME280_pressure;Samples;Min_cycle;Max_cycle;Signal;HPM_P1;HPM_P2
2023/04/03 00:01:01;;;;;;;11.53;5.27;;;;;;;-150.27;100.00;61272.81;5226670;28;20041;-71
2023/04/03 00:03:33;;;;;;;10.60;5.57;;;;;;;-150.27;100.00;61272.81;5235007;28;20022;-71
2023/04/03 00:06:06;;;;;;;8.33;5.20;;;;;;;-150.27;100.00;61272.81;5234017;28;20056;-71
2023/04/03 00:08:39;;;;;;;8.97;4.43;;;;;;;-150.27;100.00;61272.81;5234509;28;20109;-71
2023/04/03 00:11:10;;;;;;;6.60;4.77;;;;;;;-150.27;100.00;61272.81;5233601;28;20025;-71
2023/04/03 00:13:42;;;;;;;6.23;4.43;;;;;;;-150.27;100.00;61272.81;5233323;28;20075;-71
2023/04/03 00:16:14;;;;;;;7.63;5.27;;;;;;;-150.27;100.00;61272.81;5233985;28;20096;-71
2023/04/03 00:18:45;;;;;;;7.23;4.70;;;;;;;-150.27;100.00;61272.81;5233645;28;20112;-70
2023/04/03 00:21:16;;;;;;;7.70;4.33;;;;;;;-150.27;100.00;61272.81;5233346;28;20717;-71
2023/04/03 00:23:48;;;;;;;9.33;5.50;;;;;;;-150.27;100.00;61272.81;5229232;28;20022;-72
2023/04/03 00:26:20;;;;;;;8.20;4.60;;;;;;;-150.27;100.00;61272.81;5212702;28;20029;-72
2023/04/03 00:28:52;;;;;;;8.10;4.50;;;;;;;-150.27;100.00;61272.81;5212355;28;20025;-71
2023/04/03 00:31:23;;;;;;;9.13;5.67;;;;;;;-150.27;100.00;61272.81;5228746;28;20032;-71
2023/04/03 00:33:54;;;;;;;5.87;4.13;;;;;;;-150.27;100.00;61272.81;5213941;28;20022;-71
2023/04/03 00:36:26;;;;;;;6.40;4.90;;;;;;;-150.27;100.00;61272.81;5194952;28;20036;-71
2023/04/03 00:38:57;;;;;;;7.63;5.23;;;;;;;-150.27;100.00;61272.81;5195191;28;20044;-71
2023/04/03 00:41:28;;;;;;;8.57;5.90;;;;;;;-150.27;100.00;61272.81;5204525;28;20057;-72
2023/04/03 00:44:00;;;;;;;7.43;5.03;;;;;;;-150.27;100.00;61272.81;5231608;28;20171;-71
2023/04/03 00:46:31;;;;;;;6.27;4.93;;;;;;;-150.27;100.00;61272.81;5216106;28;20025;-71
2023/04/03 00:49:02;;;;;;;7.73;4.53;;;;;;;-150.27;100.00;61272.81;5233196;28;20111;-72
2023/04/03 00:51:34;;;;;;;7.40;5.17;;;;;;;-150.27;100.00;61272.81;5233550;28;20026;-70
2023/04/03 00:54:07;;;;;;;7.80;4.90;;;;;;;-150.27;100.00;61272.81;5233058;28;20487;-70
2023/04/03 00:56:39;;;;;;;7.73;4.93;;;;;;;-150.27;100.00;61272.81;5229832;28;20083;-70
2023/04/03 00:59:22;;;;;;;10.37;5.53;;;;;;;-150.27;100.00;61272.81;5227174;28;20037;-70
2023/04/03 01:01:55;;;;;;;7.13;4.57;;;;;;;-150.27;100.00;61272.81;5199228;28;20018;-70
2023/04/03 01:04:39;;;;;;;8.47;5.00;;;;;;;-150.27;100.00;61272.81;5218414;28;20032;-70
2023/04/03 01:07:17;;;;;;;9.90;5.32;;;;;;;-150.27;100.00;61272.81;5216167;28;20038;-70
2023/04/03 01:09:55;;;;;;;8.10;5.40;;;;;;;-150.27;100.00;61272.81;5227852;22;20046;-76
2023/04/03 01:12:30;;;;;;;9.60;6.23;;;;;;;-150.27;100.00;61272.81;5221932;28;20025;-76
2023/04/03 01:15:06;;;;;;;8.15;5.05;;;;;;;-150.27;100.00;61272.81;5239515;28;20025;-77
2023/04/03 01:17:51;;;;;;;9.90;6.57;;;;;;;-150.27;100.00;61272.81;5232901;28;20079;-76
2023/04/03 01:20:32;;;;;;;;;;;;;;;-150.27;100.00;61272.81;5232192;28;20060;-76
2023/04/03 01:23:10;;;;;;;8.60;5.60;;;;;;;-150.27;100.00;61272.81;5231656;28;19924;-77
2023/04/03 01:25:49;;;;;;;8.90;5.70;;;;;;;-150.27;100.00;61272.81;5241940;28;20025;-76
2023/04/03 01:28:35;;;;;;;8.00;5.30;;;;;;;-150.27;100.00;61272.81;5230629;28;20087;-75
2023/04/03 01:31:18;;;;;;;8.37;5.50;;;;;;;-150.27;100.00;61272.81;5232817;28;20022;-76
2023/04/03 01:34:08;;;;;;;14.37;5.50;;;;;;;-150.27;100.00;61272.81;5228356;28;20339;-77
2023/04/03 01:36:39;;;;;;;8.50;5.50;;;;;;;-150.27;100.00;61272.81;5219921;28;20111;-77
2023/04/03 01:39:11;;;;;;;6.70;4.97;;;;;;;-150.27;100.00;61272.81;5229763;28;20037;-77
2023/04/03 01:41:42;;;;;;;12.07;5.27;;;;;;;-150.27;100.00;61272.81;5231704;28;20018;-76
2023/04/03 01:44:14;;;;;;;7.37;5.40;;;;;;;-150.27;100.00;61272.81;5232419;28;20022;-76
2023/04/03 01:46:46;;;;;;;11.30;6.70;;;;;;;-150.27;100.00;61272.81;5232881;28;20044;-76
2023/04/03 01:49:17;;;;;;;8.33;5.27;;;;;;;-150.27;100.00;61272.81;5232385;28;20139;-76
2023/04/03 01:51:49;;;;;;;7.33;5.50;;;;;;;-150.27;100.00;61272.81;5233250;28;20025;-76
2023/04/03 01:54:20;;;;;;;9.13;5.37;;;;;;;-150.27;100.00;61272.81;5232659;28;20026;-76
2023/04/03 01:56:52;;;;;;;9.10;6.00;;;;;;;-150.27;100.00;61272.81;5231476;28;20754;-75
2023/04/03 01:59:23;;;;;;;9.40;5.83;;;;;;;-150.27;100.00;61272.81;5232566;28;20034;-75
2023/04/03 02:01:54;;;;;;;9.60;4.90;;;;;;;-150.27;100.00;61272.81;5242972;28;20404;-76
2023/04/03 02:04:26;;;;;;;8.60;5.63;;;;;;;-150.27;100.00;61272.81;5252995;28;20035;-76
2023/04/03 02:06:57;;;;;;;8.13;5.67;;;;;;;-150.27;100.00;61272.81;5251161;28;20501;-76
2023/04/03 02:09:29;;;;;;;10.43;7.07;;;;;;;-150.27;100.00;61272.81;5257239;28;20040;-76
2023/04/03 02:12:00;;;;;;;9.03;5.67;;;;;;;-150.27;100.00;61272.81;5254026;28;20028;-76
2023/04/03 02:14:31;;;;;;;11.53;5.33;;;;;;;-150.27;100.00;61272.81;5235089;28;20029;-76
2023/04/03 02:17:05;;;;;;;9.60;5.97;;;;;;;-150.27;100.00;61272.81;5252446;28;20029;-76
2023/04/03 02:19:36;;;;;;;8.17;5.20;;;;;;;-150.27;100.00;61272.81;5235163;28;20033;-76
2023/04/03 02:22:07;;;;;;;6.73;4.97;;;;;;;-150.27;100.00;61272.81;5252125;28;20028;-76
2023/04/03 02:24:40;;;;;;;12.23;5.63;;;;;;;-150.27;100.00;61272.81;5257668;28;20025;-76
2023/04/03 02:27:11;;;;;;;7.73;5.10;;;;;;;-150.27;100.00;61272.81;5257598;28;20037;-76
2023/04/03 02:29:43;;;;;;;9.53;5.50;;;;;;;-150.27;100.00;61272.81;5263323;28;20479;-76
2023/04/03 02:32:14;;;;;;;8.30;5.80;;;;;;;-150.27;100.00;61272.81;5280506;28;20028;-76
2023/04/03 02:34:46;;;;;;;12.80;5.60;;;;;;;-150.27;100.00;61272.81;5268138;28;20056;-76
2023/04/03 02:37:17;;;;;;;9.03;5.43;;;;;;;-150.27;100.00;61272.81;5259419;28;20028;-75
2023/04/03 02:39:49;;;;;;;7.87;5.53;;;;;;;-150.27;100.00;61272.81;5259494;28;20021;-75
2023/04/03 02:42:20;;;;;;;7.30;5.10;;;;;;;-150.27;100.00;61272.81;5258970;28;20032;-76
2023/04/03 02:44:52;;;;;;;7.23;4.63;;;;;;;-150.27;100.00;61272.81;5259803;28;20412;-75
2023/04/03 02:47:23;;;;;;;6.87;4.70;;;;;;;-150.27;100.00;61272.81;5256907;28;20716;-75
2023/04/03 02:49:54;;;;;;;8.10;5.30;;;;;;;-150.27;100.00;61272.81;5280387;28;20028;-76
2023/04/03 02:52:26;;;;;;;7.50;5.07;;;;;;;-150.27;100.00;61272.81;5280640;28;20556;-76
2023/04/03 02:54:57;;;;;;;8.00;4.40;;;;;;;-150.27;100.00;61272.81;5280144;28;20028;-76
2023/04/03 02:57:29;;;;;;;7.70;5.63;;;;;;;-150.27;100.00;61272.81;5261172;28;20043;-76
2023/04/03 03:00:00;;;;;;;8.20;4.73;;;;;;;-150.27;100.00;61272.81;5279789;28;20354;-76
2023/04/03 03:02:31;;;;;;;7.83;5.67;;;;;;;-150.27;100.00;61272.81;5280573;28;20740;-76
2023/04/03 03:05:03;;;;;;;7.90;4.27;;;;;;;-150.27;100.00;61272.81;5279837;28;20032;-77
2023/04/03 03:07:34;;;;;;;7.53;4.77;;;;;;;-150.27;100.00;61272.81;5279986;28;20028;-75
2023/04/03 03:10:06;;;;;;;7.00;5.33;;;;;;;-150.27;100.00;61272.81;5279842;28;20128;-76
2023/04/03 03:12:37;;;;;;;9.23;4.30;;;;;;;-150.27;100.00;61272.81;5279161;28;20110;-76
2023/04/03 03:15:12;;;;;;;5.40;4.40;;;;;;;-150.27;100.00;61272.81;5263915;28;20024;-75
2023/04/03 03:17:43;;;;;;;7.45;4.95;;;;;;;-150.27;100.00;61272.81;5259413;28;20368;-76
2023/04/03 03:20:16;;;;;;;8.60;4.93;;;;;;;-150.27;100.00;61272.81;5240163;28;20029;-75
2023/04/03 03:22:47;;;;;;;7.73;4.67;;;;;;;-150.27;100.00;61272.81;5259377;28;20059;-75
2023/04/03 03:25:18;;;;;;;10.63;4.67;;;;;;;-150.27;100.00;61272.81;5258240;28;20025;-76
2023/04/03 03:27:50;;;;;;;9.30;4.57;;;;;;;-150.27;100.00;61272.81;5258408;28;20464;-76
2023/04/03 03:30:21;;;;;;;5.03;3.67;;;;;;;-150.27;100.00;61272.81;5259033;28;20024;-75
2023/04/03 03:32:53;;;;;;;8.60;4.37;;;;;;;-150.27;100.00;61272.81;5259425;28;20059;-76
2023/04/03 03:35:24;;;;;;;4.40;3.40;;;;;;;-150.27;100.00;61272.81;5256293;28;20025;-76
2023/04/03 03:37:55;;;;;;;5.83;3.37;;;;;;;-150.27;100.00;61272.81;5255828;28;20036;-77
2023/04/03 03:40:27;;;;;;;9.13;4.50;;;;;;;-150.27;100.00;61272.81;5237293;28;20033;-76
2023/04/03 03:42:58;;;;;;;6.87;3.50;;;;;;;-150.27;100.00;61272.81;5254633;28;20730;-76
2023/04/03 03:45:29;;;;;;;5.17;3.80;;;;;;;-150.27;100.00;61272.81;5255266;28;20103;-76
2023/04/03 03:48:02;;;;;;;8.30;4.00;;;;;;;-150.27;100.00;61272.81;5255170;28;20115;-76
2023/04/03 03:50:33;;;;;;;7.67;4.17;;;;;;;-150.27;100.00;61272.81;5237326;28;20032;-76
2023/04/03 03:53:05;;;;;;;6.47;3.00;;;;;;;-150.27;100.00;61272.81;5255634;28;20033;-76
2023/04/03 03:55:36;;;;;;;5.80;3.27;;;;;;;-150.27;100.00;61272.81;5255191;28;20025;-76
2023/04/03 03:58:07;;;;;;;7.90;4.33;;;;;;;-150.27;100.00;61272.81;5254001;28;20633;-76
2023/04/03 04:00:39;;;;;;;6.40;3.97;;;;;;;-150.27;100.00;61272.81;5255402;28;20036;-76
2023/04/03 04:03:10;;;;;;;8.33;4.17;;;;;;;-150.27;100.00;61272.81;5254206;28;20037;-76
2023/04/03 04:05:41;;;;;;;4.63;3.17;;;;;;;-150.27;100.00;61272.81;5254807;28;20108;-76
2023/04/03 04:08:13;;;;;;;6.37;3.40;;;;;;;-150.27;100.00;61272.81;5254725;28;20021;-76
2023/04/03 04:10:44;;;;;;;5.97;3.43;;;;;;;-150.27;100.00;61272.81;5255423;28;20049;-76
2023/04/03 04:13:16;;;;;;;6.97;3.97;;;;;;;-150.27;100.00;61272.81;5254061;28;20123;-76
2023/04/03 04:15:47;;;;;;;6.70;3.37;;;;;;;-150.27;100.00;61272.81;5254528;28;20040;-75
2023/04/03 04:18:20;;;;;;;7.27;4.03;;;;;;;-150.27;100.00;61272.81;5255118;28;20075;-76
2023/04/03 04:20:51;;;;;;;7.80;3.43;;;;;;;-150.27;100.00;61272.81;5254364;28;20498;-75
2023/04/03 04:23:23;;;;;;;5.83;3.03;;;;;;;-150.27;100.00;61272.81;5273862;28;20052;-75
2023/04/03 04:25:54;;;;;;;5.60;3.67;;;;;;;-150.27;100.00;61272.81;5269681;28;20024;-75
2023/04/03 04:28:25;;;;;;;9.63;3.73;;;;;;;-150.27;100.00;61272.81;5253605;28;20430;-74
2023/04/03 04:30:57;;;;;;;9.70;4.83;;;;;;;-150.27;100.00;61272.81;5254422;28;20025;-75
2023/04/03 04:33:28;;;;;;;5.30;2.60;;;;;;;-150.27;100.00;61272.81;5254547;28;20029;-76
2023/04/03 04:35:59;;;;;;;5.43;3.10;;;;;;;-150.27;100.00;61272.81;5254803;28;20036;-76
2023/04/03 04:38:30;;;;;;;8.57;3.53;;;;;;;-150.27;100.00;61272.81;5246637;28;20028;-76
2023/04/03 04:41:02;;;;;;;4.67;3.27;;;;;;;-150.27;100.00;61272.81;5275185;28;20380;-74
2023/04/03 04:43:33;;;;;;;8.07;4.27;;;;;;;-150.27;100.00;61272.81;5275051;28;20123;-75
2023/04/03 04:46:07;;;;;;;5.27;2.70;;;;;;;-150.27;100.00;61272.81;5265243;28;20040;-75
2023/04/03 04:48:38;;;;;;;6.60;3.40;;;;;;;-150.27;100.00;61272.81;5255378;28;20025;-75
2023/04/03 04:51:10;;;;;;;9.37;3.60;;;;;;;-150.27;100.00;61272.81;5237318;28;20086;-74
2023/04/03 04:53:42;;;;;;;6.40;2.73;;;;;;;-150.27;100.00;61272.81;5254557;28;20036;-75
2023/04/03 04:56:13;;;;;;;8.47;2.90;;;;;;;-150.27;100.00;61272.81;5254185;28;20068;-75
2023/04/03 04:58:45;;;;;;;6.87;2.87;;;;;;;-150.27;100.00;61272.81;5255220;28;20053;-75
2023/04/03 05:01:16;;;;;;;7.63;3.63;;;;;;;-150.27;100.00;61272.81;5236499;28;20396;-75
2023/04/03 05:03:48;;;;;;;6.70;3.33;;;;;;;-150.27;100.00;61272.81;5256547;28;20039;-76
2023/04/03 05:06:19;;;;;;;5.67;3.13;;;;;;;-150.27;100.00;61272.81;5256286;28;20033;-76
2023/04/03 05:08:52;;;;;;;6.33;3.43;;;;;;;-150.27;100.00;61272.81;5240168;28;20124;-76
2023/04/03 05:11:23;;;;;;;5.03;2.73;;;;;;;-150.27;100.00;61272.81;5256408;28;20043;-75
2023/04/03 05:13:54;;;;;;;5.27;2.70;;;;;;;-150.27;100.00;61272.81;5238396;28;20244;-74
2023/04/03 05:16:26;;;;;;;9.00;2.90;;;;;;;-150.27;100.00;61272.81;5241089;28;20029;-74
2023/04/03 05:18:58;;;;;;;9.07;2.70;;;;;;;-150.27;100.00;61272.81;5254222;28;20415;-74
2023/04/03 05:21:32;;;;;;;4.60;3.27;;;;;;;-150.27;100.00;61272.81;5254204;28;20473;-75
2023/04/03 05:24:03;;;;;;;5.33;2.50;;;;;;;-150.27;100.00;61272.81;5251587;28;20119;-75
2023/04/03 05:26:35;;;;;;;9.63;2.90;;;;;;;-150.27;100.00;61272.81;5238201;28;20460;-75
2023/04/03 05:29:06;;;;;;;5.53;3.13;;;;;;;-150.27;100.00;61272.81;5222268;28;20056;-75
2023/04/03 05:31:37;;;;;;;8.40;2.83;;;;;;;-150.27;100.00;61272.81;5241287;28;20780;-75
2023/04/03 05:34:09;;;;;;;5.67;2.60;;;;;;;-150.27;100.00;61272.81;5241790;28;20067;-76
2023/04/03 05:36:41;;;;;;;5.60;2.80;;;;;;;-150.27;100.00;61272.81;5240745;28;20555;-76
2023/04/03 05:39:12;;;;;;;6.67;2.37;;;;;;;-150.27;100.00;61272.81;5240965;28;20055;-76
2023/04/03 05:41:44;;;;;;;5.73;2.97;;;;;;;-150.27;100.00;61272.81;5221739;28;20585;-75
2023/04/03 05:44:15;;;;;;;8.27;2.00;;;;;;;-150.27;100.00;61272.81;5222900;28;20048;-75
2023/04/03 05:46:47;;;;;;;6.60;2.60;;;;;;;-150.27;100.00;61272.81;5242356;28;20041;-75
2023/04/03 05:49:19;;;;;;;5.30;2.27;;;;;;;-150.27;100.00;61272.81;5240978;28;20092;-75
2023/04/03 05:51:52;;;;;;;7.20;2.00;;;;;;;-150.27;100.00;61272.81;5240783;28;20033;-76
2023/04/03 05:54:26;;;;;;;7.20;3.17;;;;;;;-150.27;100.00;61272.81;5239700;28;20068;-75
2023/04/03 05:56:57;;;;;;;5.63;2.23;;;;;;;-150.27;100.00;61272.81;5240511;28;20148;-75
2023/04/03 05:59:28;;;;;;;5.40;2.50;;;;;;;-150.27;100.00;61272.81;5240287;28;20291;-76
2023/04/03 06:02:00;;;;;;;4.40;2.37;;;;;;;-150.27;100.00;61272.81;5240642;28;20032;-75
2023/04/03 06:04:32;;;;;;;5.07;2.53;;;;;;;-150.27;100.00;61272.81;5223066;28;20040;-75
2023/04/03 06:07:03;;;;;;;8.93;2.60;;;;;;;-150.27;100.00;61272.81;5239796;28;20518;-74
2023/04/03 06:09:35;;;;;;;5.97;2.57;;;;;;;-150.27;100.00;61272.81;5240734;28;20052;-74
2023/04/03 06:12:06;;;;;;;5.87;2.60;;;;;;;-150.27;100.00;61272.81;5239584;28;20048;-75
2023/04/03 06:14:38;;;;;;;10.57;2.37;;;;;;;-150.27;100.00;61272.81;5244176;28;20723;-76
2023/04/03 06:17:10;;;;;;;9.10;3.30;;;;;;;-150.27;100.00;61272.81;5245028;28;20032;-76
2023/04/03 06:19:41;;;;;;;6.23;2.27;;;;;;;-150.27;100.00;61272.81;5245451;28;20731;-76
2023/04/03 06:22:13;;;;;;;6.33;2.30;;;;;;;-150.27;100.00;61272.81;5223818;28;20049;-76
2023/04/03 06:24:45;;;;;;;8.83;2.33;;;;;;;-150.27;100.00;61272.81;5244323;28;20029;-76
2023/04/03 06:27:16;;;;;;;4.87;2.20;;;;;;;-150.27;100.00;61272.81;5243824;28;20032;-76
2023/04/03 06:29:48;;;;;;;8.10;2.60;;;;;;;-150.27;100.00;61272.81;5242149;28;20505;-77
2023/04/03 06:32:20;;;;;;;5.73;2.50;;;;;;;-150.27;100.00;61272.81;5241667;28;20039;-77
2023/04/03 06:34:53;;;;;;;5.30;2.60;;;;;;;-150.27;100.00;61272.81;5225848;28;20392;-77
2023/04/03 06:37:25;;;;;;;6.53;2.50;;;;;;;-150.27;100.00;61272.81;5242630;28;20083;-77
2023/04/03 06:39:57;;;;;;;8.37;2.87;;;;;;;-150.27;100.00;61272.81;5222954;28;20575;-77
2023/04/03 06:42:28;;;;;;;7.23;2.60;;;;;;;-150.27;100.00;61272.81;5241032;28;20041;-77
2023/04/03 06:45:00;;;;;;;7.73;2.33;;;;;;;-150.27;100.00;61272.81;5243316;28;20487;-77
2023/04/03 06:47:32;;;;;;;5.73;2.63;;;;;;;-150.27;100.00;61272.81;5225762;28;20068;-77
2023/04/03 06:50:03;;;;;;;6.30;2.13;;;;;;;-150.27;100.00;61272.81;5173560;28;20041;-77
2023/04/03 06:52:35;;;;;;;8.70;3.30;;;;;;;-150.27;100.00;61272.81;5234394;28;20515;-77
2023/04/03 06:55:08;;;;;;;9.17;2.53;;;;;;;-150.27;100.00;61272.81;5239024;28;20098;-77
2023/04/03 06:57:39;;;;;;;7.03;2.57;;;;;;;-150.27;100.00;61272.81;5236545;28;20468;-77
2023/04/03 07:00:11;;;;;;;9.47;2.60;;;;;;;-150.27;100.00;61272.81;5237765;28;20044;-76
2023/04/03 07:02:43;;;;;;;7.87;2.37;;;;;;;-150.27;100.00;61272.81;5236780;28;20029;-76
2023/04/03 07:05:14;;;;;;;6.60;2.23;;;;;;;-150.27;100.00;61272.81;5234827;28;20091;-76
2023/04/03 07:07:47;;;;;;;11.63;3.70;;;;;;;-150.27;100.00;61272.81;5237083;28;20045;-75
2023/04/03 07:10:18;;;;;;;6.93;3.00;;;;;;;-150.27;100.00;61272.81;5211405;28;20086;-76
2023/04/03 07:12:50;;;;;;;4.00;1.93;;;;;;;-150.27;100.00;61272.81;5239621;28;20037;-75
2023/04/03 07:15:22;;;;;;;4.93;1.80;;;;;;;-150.27;100.00;61272.81;5239323;28;20036;-75
2023/04/03 07:17:55;;;;;;;9.20;2.70;;;;;;;-150.27;100.00;61272.81;5237302;28;20502;-75
2023/04/03 07:20:26;;;;;;;3.90;2.03;;;;;;;-150.27;100.00;61272.81;5240327;28;20049;-74
2023/04/03 07:22:58;;;;;;;4.97;2.23;;;;;;;-150.27;100.00;61272.81;5223358;28;20041;-75
2023/04/03 07:25:29;;;;;;;5.67;2.07;;;;;;;-150.27;100.00;61272.81;5240368;28;20064;-75
2023/04/03 07:28:01;;;;;;;6.30;2.40;;;;;;;-150.27;100.00;61272.81;5253423;28;20507;-75
2023/04/03 07:30:33;;;;;;;4.87;1.97;;;;;;;-150.27;100.00;61272.81;5254575;28;20032;-76
2023/04/03 07:33:04;;;;;;;7.53;2.30;;;;;;;-150.27;100.00;61272.81;5237278;28;20037;-76
2023/04/03 07:35:36;;;;;;;4.77;2.03;;;;;;;-150.27;100.00;61272.81;5237143;28;20434;-76
2023/04/03 07:38:08;;;;;;;7.13;1.97;;;;;;;-150.27;100.00;61272.81;5237232;28;20032;-76
2023/04/03 07:40:39;;;;;;;6.50;2.90;;;;;;;-150.27;100.00;61272.81;5254010;28;20056;-76
2023/04/03 07:43:11;;;;;;;5.43;1.67;;;;;;;-150.27;100.00;61272.81;5236543;28;20028;-75
2023/04/03 07:45:43;;;;;;;6.13;2.00;;;;;;;-150.27;100.00;61272.81;5254628;28;20373;-75
2023/04/03 07:48:15;;;;;;;6.30;2.43;;;;;;;-150.27;100.00;61272.81;5254708;28;20527;-76
2023/04/03 07:50:47;;;;;;;7.63;2.47;;;;;;;-150.27;100.00;61272.81;5254278;28;20123;-76
2023/04/03 07:53:18;;;;;;;4.97;2.00;;;;;;;-150.27;100.00;61272.81;5253925;28;20104;-76
2023/04/03 07:55:51;;;;;;;7.73;2.17;;;;;;;-150.27;100.00;61272.81;5235776;28;20036;-75
2023/04/03 07:58:22;;;;;;;5.90;2.40;;;;;;;-150.27;100.00;61272.81;5254264;28;20025;-75
2023/04/03 08:00:54;;;;;;;7.50;2.80;;;;;;;-150.27;100.00;61272.81;5255069;28;20029;-75
2023/04/03 08:03:25;;;;;;;7.33;2.53;;;;;;;-150.27;100.00;61272.81;5253877;28;20083;-76
2023/04/03 08:06:03;;;;;;;6.63;2.10;;;;;;;-150.27;100.00;61272.81;5254247;28;20025;-76
2023/04/03 08:08:35;;;;;;;4.50;1.93;;;;;;;-150.27;100.00;61272.81;5254237;28;20025;-76
2023/04/03 08:11:07;;;;;;;4.40;1.70;;;;;;;-150.27;100.00;61272.81;5253173;28;20052;-75
2023/04/03 08:13:41;;;;;;;5.27;2.00;;;;;;;-150.27;100.00;61272.81;5253985;28;20040;-76
2023/04/03 08:16:17;;;;;;;5.70;1.80;;;;;;;-150.27;100.00;61272.81;5254418;28;20552;-75
2023/04/03 08:18:48;;;;;;;5.20;2.20;;;;;;;-150.27;100.00;61272.81;5254474;28;20032;-76
2023/04/03 08:21:20;;;;;;;6.20;1.60;;;;;;;-150.27;100.00;61272.81;5235876;28;20021;-74
2023/04/03 08:23:52;;;;;;;5.40;1.60;;;;;;;-150.27;100.00;61272.81;5251120;28;20087;-75
2023/04/03 08:26:24;;;;;;;6.30;1.97;;;;;;;-150.27;100.00;61272.81;5245190;28;20108;-75
2023/04/03 08:28:55;;;;;;;4.27;1.87;;;;;;;-150.27;100.00;61272.81;5253816;28;20025;-76
2023/04/03 08:31:27;;;;;;;4.57;1.47;;;;;;;-150.27;100.00;61272.81;5252994;28;20013;-74
2023/04/03 08:33:58;;;;;;;6.10;1.80;;;;;;;-150.27;100.00;61272.81;5253089;28;20029;-74
2023/04/03 08:36:30;;;;;;;4.23;1.60;;;;;;;-150.27;100.00;61272.81;5254046;28;20031;-75
2023/04/03 08:39:02;;;;;;;6.77;2.27;;;;;;;-150.27;100.00;61272.81;5254313;28;20017;-75
2023/04/03 08:42:07;;;;;;;5.73;1.93;;;;;;;-150.27;100.00;61272.81;5252270;28;20040;-82
2023/04/03 08:44:49;;;;;;;4.85;1.85;;;;;;;-150.27;100.00;61272.81;5236407;28;20063;-76
2023/04/03 08:47:37;;;;;;;6.20;2.30;;;;;;;-150.27;100.00;61272.81;5253775;28;20033;-75
2023/04/03 08:50:15;;;;;;;3.60;1.43;;;;;;;-150.27;100.00;61272.81;5253343;28;20040;-75
2023/04/03 08:52:56;;;;;;;3.50;1.60;;;;;;;-150.27;100.00;61272.81;5253807;28;20516;-76
2023/04/03 08:55:45;;;;;;;2.77;1.70;;;;;;;-150.27;100.00;61272.81;5252575;28;20020;-76
2023/04/03 08:58:24;;;;;;;4.50;1.50;;;;;;;-150.27;100.00;61272.81;5253069;28;20852;-76
2023/04/03 09:01:20;;;;;;;5.47;1.40;;;;;;;-150.27;100.00;61272.81;5253377;28;20721;-75
2023/04/03 09:03:51;;;;;;;3.83;1.00;;;;;;;-150.27;100.00;61272.81;5253632;28;20182;-75
2023/04/03 09:06:32;;;;;;;3.67;1.40;;;;;;;-150.27;100.00;61272.81;5235327;28;20095;-75
2023/04/03 09:09:32;;;;;;;3.37;1.17;;;;;;;-150.27;100.00;61272.81;5236121;28;20505;-76
2023/04/03 09:12:13;;;;;;;1.90;1.10;;;;;;;-150.27;100.00;61272.81;5253294;28;20032;-75
2023/04/03 09:15:12;;;;;;;1.93;0.93;;;;;;;-150.27;100.00;61272.81;5253363;28;20104;-75
2023/04/03 09:17:44;;;;;;;3.70;1.10;;;;;;;-150.27;100.00;61272.81;5252908;28;20025;-76
2023/04/03 09:20:34;;;;;;;3.90;1.30;;;;;;;-150.27;100.00;61272.81;5252585;28;20032;-76
2023/04/03 09:23:22;;;;;;;2.95;1.25;;;;;;;-150.27;100.00;61272.81;5252828;28;20024;-75
2023/04/03 09:26:01;;;;;;;5.25;0.85;;;;;;;-150.27;100.00;61272.81;5223147;28;20281;-76
2023/04/03 09:28:39;;;;;;;2.30;0.88;;;;;;;-150.27;100.00;61272.81;5250263;28;20056;-77
2023/04/03 09:31:20;;;;;;;3.80;1.15;;;;;;;-150.27;100.00;61272.81;5251186;28;20017;-76
2023/04/03 09:34:02;;;;;;;2.53;1.05;;;;;;;-150.27;100.00;61272.81;5251381;28;20028;-76
2023/04/03 09:36:51;;;;;;;2.05;1.13;;;;;;;-150.27;100.00;61272.81;5252361;28;20539;-76
2023/04/03 09:39:28;;;;;;;2.38;1.30;;;;;;;-150.27;100.00;61272.81;5251575;28;20357;-77
2023/04/03 09:42:18;;;;;;;2.53;1.30;;;;;;;-150.27;100.00;61272.81;5251696;28;20047;-75
2023/04/03 09:44:56;;;;;;;1.52;0.70;;;;;;;-150.27;100.00;61272.81;5252341;28;20056;-76
2023/04/03 09:47:33;;;;;;;2.80;0.88;;;;;;;-150.27;100.00;61272.81;5251671;28;20017;-76
2023/04/03 09:50:19;;;;;;;3.55;1.10;;;;;;;-150.27;100.00;61272.81;5251678;28;20033;-75
2023/04/03 09:52:52;;;;;;;2.42;0.90;;;;;;;-150.27;100.00;61272.81;5244574;28;20017;-76
2023/04/03 09:55:45;;;;;;;3.13;0.90;;;;;;;-150.27;100.00;61272.81;5252410;28;20017;-78
2023/04/03 09:58:29;;;;;;;3.00;1.23;;;;;;;-150.27;100.00;61272.81;5235068;28;20831;-76
2023/04/03 10:01:02;;;;;;;2.92;1.00;;;;;;;-150.27;100.00;61272.81;5252668;28;20033;-76
2023/04/03 10:03:36;;;;;;;2.88;1.17;;;;;;;-150.27;100.00;61272.81;5252630;28;20326;-77
2023/04/03 10:06:23;;;;;;;1.75;1.10;;;;;;;-150.27;100.00;61272.81;5252751;28;20029;-78
2023/04/03 10:09:22;;;;;;;3.60;1.45;;;;;;;-150.27;100.00;61272.81;5253783;28;20494;-78
2023/04/03 10:12:06;;;;;;;1.55;0.70;;;;;;;-150.27;100.00;61272.81;5230899;28;20044;-77
2023/04/03 10:14:41;;;;;;;1.90;0.80;;;;;;;-150.27;100.00;61272.81;5253058;28;20503;-77
2023/04/03 10:17:32;;;;;;;2.50;0.88;;;;;;;-150.27;100.00;61272.81;5252082;28;20028;-77
2023/04/03 10:20:18;;;;;;;1.83;0.65;;;;;;;-150.27;100.00;61272.81;5251839;28;20031;-77
2023/04/03 10:23:25;;;;;;;1.35;0.77;;;;;;;-150.27;100.00;61272.81;5251973;28;20024;-78
2023/04/03 10:26:17;;;;;;;3.58;0.85;;;;;;;-150.27;100.00;61272.81;5241394;28;20039;-76
2023/04/03 10:28:54;;;;;;;2.28;1.08;;;;;;;-150.27;100.00;61272.81;5232371;28;20028;-78
2023/04/03 10:31:37;;;;;;;1.85;0.90;;;;;;;-150.27;100.00;61272.81;5250849;28;20029;-76
2023/04/03 10:34:28;;;;;;;2.15;0.90;;;;;;;-150.27;100.00;61272.81;5251649;28;20087;-77
2023/04/03 10:37:32;;;;;;;3.67;1.00;;;;;;;-150.27;100.00;61272.81;5251885;28;20102;-77
2023/04/03 10:40:24;;;;;;;4.70;0.93;;;;;;;-150.27;100.00;61272.81;5231326;28;20032;-76
2023/04/03 10:43:06;;;;;;;1.83;0.77;;;;;;;-150.27;100.00;61272.81;5232029;28;20029;-77
2023/04/03 10:45:40;;;;;;;4.05;1.15;;;;;;;-150.27;100.00;61272.81;5249021;28;20024;-77
2023/04/03 10:48:22;;;;;;;;;;;;;;;-150.27;100.00;61272.81;5267637;28;20032;-76
2023/04/03 10:51:08;;;;;;;2.03;1.02;;;;;;;-150.27;100.00;61272.81;5256667;28;19912;-77
2023/04/03 10:53:51;;;;;;;2.78;1.15;;;;;;;-150.27;100.00;61272.81;5239944;28;20040;-76
2023/04/03 10:56:38;;;;;;;2.17;0.57;;;;;;;-150.27;100.00;61272.81;5232513;28;20026;-77
2023/04/03 10:59:40;;;;;;;1.52;0.90;;;;;;;-150.27;100.00;61272.81;5249961;28;20056;-77
2023/04/03 11:02:22;;;;;;;1.88;1.23;;;;;;;-150.27;100.00;61272.81;5236475;28;20016;-76
2023/04/03 11:05:00;;;;;;;1.87;0.83;;;;;;;-150.27;100.00;61272.81;5246286;28;20032;-76
2023/04/03 11:07:43;;;;;;;3.37;0.70;;;;;;;-150.27;100.00;61272.81;5244940;28;20075;-75
2023/04/03 11:10:23;;;;;;;2.43;0.80;;;;;;;-150.27;100.00;61272.81;5245627;28;20981;-76
2023/04/03 11:13:18;;;;;;;3.20;1.00;;;;;;;-150.27;100.00;61272.81;5245488;28;20093;-76
2023/04/03 11:15:53;;;;;;;1.70;0.87;;;;;;;-150.27;100.00;61272.81;5242451;28;20106;-76
2023/04/03 11:18:49;;;;;;;1.83;0.80;;;;;;;-150.27;100.00;61272.81;5250147;28;20479;-76
2023/04/03 11:21:45;;;;;;;2.93;0.80;;;;;;;-150.27;100.00;61272.81;5230171;28;20082;-76
2023/04/03 11:24:27;;;;;;;2.27;1.03;;;;;;;-150.27;100.00;61272.81;5246797;28;20039;-76
2023/04/03 11:27:03;;;;;;;1.20;0.70;;;;;;;-150.27;100.00;61272.81;5244582;28;20064;-76
2023/04/03 11:29:39;;;;;;;5.10;1.03;;;;;;;-150.27;100.00;61272.81;5243691;28;20033;-75
2023/04/03 11:32:13;;;;;;;3.10;0.70;;;;;;;-150.27;100.00;61272.81;5225090;28;20021;-75
2023/04/03 11:34:51;;;;;;;1.90;0.75;;;;;;;-150.27;100.00;61272.81;5244244;28;20044;-75
2023/04/03 11:37:36;;;;;;;2.37;0.77;;;;;;;-150.27;100.00;61272.81;5243159;28;20135;-76
2023/04/03 11:40:21;;;;;;;2.10;1.03;;;;;;;-150.27;100.00;61272.81;5241034;28;20032;-76
2023/04/03 11:43:02;;;;;;;1.33;0.77;;;;;;;-150.27;100.00;61272.81;5243555;28;20029;-76
2023/04/03 11:45:54;;;;;;;1.27;0.60;;;;;;;-150.27;100.00;61272.81;5226030;28;20041;-76